Pagrindinis puslapis
METAR-TAF:

METAR-TAF

Oro uostai :

Tarantas, Italija

platuma: 40-31N, ilguma: 017-24E, Aukštis: 64 m

Dabartinis oras

Ataskaita buvo paskelbta 1 valandą ir 24 minutes, ne 15:50 UTC
Vėjas 11 kt iš Šiaurės Rytų, svyruoja nuo Šiaurės ir Rytų/Šiaurės Rytų
Temperatūra 17°C
Drėgmė 48%
Slėgis 1024 hPa
Matomumas 10 km arba daugiau
nėra debesų žemiau 1500 m ir nėra kamuolinių lietaus debesų

METAR: LIBG 071550Z 05011KT 360V060 CAVOK 17/06 Q1024

Laikas: 19:14 (17:14 UTC)

Prognozė

Ataskaita buvo paskelbta 3 valandos ir 14 minutes, ne 14:00 UTC
Prognozė galioja nuo 07 metu 15 UTC su 07 metu 24 UTC
Vėjas 13 kt iš Šiaurės/Šiaurės Rytų
Matomumas 10 km arba daugiau
nėra debesų žemiau 1500 m ir nėra kamuolinių lietaus debesų

TAF: LIBG 071400Z 0715/0724 03013KT CAVOK

Orai ataskaitas ir orų prognozės (METAR, TAF).

turimą stotys yra geltonos ir raudonos taškus žemėlapyje.

Perkelti pele per norėdami pamatyti stoties vardą.

Tada spustelėkite, norėdami matyti oro stebėjimo ir prognozės.

Norėdami pakeisti žemėlapį: spustelėkite ant žalios mygtukų su juodo kryžiaus žemyn,; žalią mygtuką su brūkšneliu, jei norite nutolinti; arba žalių rodyklių gretimoms žemėlapius.


METAR-TAF: